sensor_id;sensor_type;location;lat;lon;timestamp;pressure;altitude;pressure_sealevel;temperature;humidity
16194;BME280;8204;53.582;10.080;2023-06-22T00:01:58;101652.03;;;22.93;100.00
16194;BME280;8204;53.582;10.080;2023-06-22T00:04:23;101642.59;;;22.91;100.00
16194;BME280;8204;53.582;10.080;2023-06-22T00:06:49;101646.72;;;22.87;100.00
16194;BME280;8204;53.582;10.080;2023-06-22T00:09:15;101648.81;;;22.85;100.00
16194;BME280;8204;53.582;10.080;2023-06-22T00:11:40;101643.09;;;22.81;100.00
16194;BME280;8204;53.582;10.080;2023-06-22T00:14:06;101638.97;;;22.79;100.00
16194;BME280;8204;53.582;10.080;2023-06-22T00:16:32;101636.97;;;22.75;100.00
16194;BME280;8204;53.582;10.080;2023-06-22T00:18:58;101631.22;;;22.71;100.00
16194;BME280;8204;53.582;10.080;2023-06-22T00:21:28;101622.81;;;22.68;100.00
16194;BME280;8204;53.582;10.080;2023-06-22T00:23:54;101617.88;;;22.65;100.00
16194;BME280;8204;53.582;10.080;2023-06-22T00:26:20;101617.50;;;22.61;100.00
16194;BME280;8204;53.582;10.080;2023-06-22T00:28:46;101620.63;;;22.58;100.00
16194;BME280;8204;53.582;10.080;2023-06-22T00:31:11;101618.13;;;22.57;100.00
16194;BME280;8204;53.582;10.080;2023-06-22T00:33:37;101628.25;;;22.55;100.00
16194;BME280;8204;53.582;10.080;2023-06-22T00:36:04;101622.50;;;22.51;100.00
16194;BME280;8204;53.582;10.080;2023-06-22T00:38:29;101624.78;;;22.48;100.00
16194;BME280;8204;53.582;10.080;2023-06-22T00:40:55;101621.28;;;22.47;100.00
16194;BME280;8204;53.582;10.080;2023-06-22T00:43:20;101626.03;;;22.45;100.00
16194;BME280;8204;53.582;10.080;2023-06-22T00:45:45;101617.63;;;22.42;100.00
16194;BME280;8204;53.582;10.080;2023-06-22T00:48:12;101624.22;;;22.39;100.00
16194;BME280;8204;53.582;10.080;2023-06-22T00:50:40;101621.97;;;22.36;100.00
16194;BME280;8204;53.582;10.080;2023-06-22T00:53:08;101615.81;;;22.36;100.00
16194;BME280;8204;53.582;10.080;2023-06-22T01:55:34;101563.00;;;21.88;100.00
16194;BME280;8204;53.582;10.080;2023-06-22T01:58:00;101560.78;;;21.85;100.00
16194;BME280;8204;53.582;10.080;2023-06-22T02:00:28;101560.59;;;21.80;100.00
16194;BME280;8204;53.582;10.080;2023-06-22T02:03:26;101557.72;;;21.81;100.00
16194;BME280;8204;53.582;10.080;2023-06-22T02:06:01;101550.56;;;21.75;100.00
16194;BME280;8204;53.582;10.080;2023-06-22T02:08:31;101545.44;;;21.74;100.00
16194;BME280;8204;53.582;10.080;2023-06-22T02:10:58;101548.28;;;21.72;100.00
16194;BME280;8204;53.582;10.080;2023-06-22T02:13:25;101545.03;;;21.70;100.00
16194;BME280;8204;53.582;10.080;2023-06-22T02:15:51;101532.50;;;21.71;100.00
16194;BME280;8204;53.582;10.080;2023-06-22T02:18:17;101523.06;;;21.68;100.00
16194;BME280;8204;53.582;10.080;2023-06-22T02:20:42;101531.06;;;21.68;100.00
16194;BME280;8204;53.582;10.080;2023-06-22T02:23:08;101528.63;;;21.67;100.00
16194;BME280;8204;53.582;10.080;2023-06-22T02:25:34;101526.59;;;21.62;100.00
16194;BME280;8204;53.582;10.080;2023-06-22T02:28:00;101517.16;;;21.60;100.00
16194;BME280;8204;53.582;10.080;2023-06-22T02:30:26;101525.34;;;21.58;100.00
16194;BME280;8204;53.582;10.080;2023-06-22T02:32:52;101508.94;;;21.55;100.00
16194;BME280;8204;53.582;10.080;2023-06-22T02:35:28;101487.22;;;21.51;100.00
16194;BME280;8204;53.582;10.080;2023-06-22T02:38:01;101487.22;;;21.51;100.00
16194;BME280;8204;53.582;10.080;2023-06-22T02:40:27;101489.25;;;21.49;100.00
16194;BME280;8204;53.582;10.080;2023-06-22T02:42:53;101505.66;;;21.46;100.00
16194;BME280;8204;53.582;10.080;2023-06-22T02:45:19;101500.56;;;21.45;100.00
16194;BME280;8204;53.582;10.080;2023-06-22T02:47:44;101498.09;;;21.43;100.00
16194;BME280;8204;53.582;10.080;2023-06-22T02:50:10;101494.03;;;21.41;100.00
16194;BME280;8204;53.582;10.080;2023-06-22T02:52:36;101491.75;;;21.38;100.00
16194;BME280;8204;53.582;10.080;2023-06-22T02:55:01;101484.38;;;21.33;100.00
16194;BME280;8204;53.582;10.080;2023-06-22T02:57:27;101479.47;;;21.30;100.00
16194;BME280;8204;53.582;10.080;2023-06-22T02:59:53;101478.88;;;21.28;100.00
16194;BME280;8204;53.582;10.080;2023-06-22T03:02:20;101491.00;;;21.25;100.00
16194;BME280;8204;53.582;10.080;2023-06-22T03:04:47;101492.00;;;21.24;100.00
16194;BME280;8204;53.582;10.080;2023-06-22T03:07:20;101496.72;;;21.22;100.00
16194;BME280;8204;53.582;10.080;2023-06-22T03:09:45;101492.63;;;21.19;100.00
16194;BME280;8204;53.582;10.080;2023-06-22T03:12:11;101494.69;;;21.17;100.00
16194;BME280;8204;53.582;10.080;2023-06-22T03:14:36;101506.59;;;21.15;100.00
16194;BME280;8204;53.582;10.080;2023-06-22T03:17:04;101504.34;;;21.12;100.00
16194;BME280;8204;53.582;10.080;2023-06-22T03:19:30;101492.22;;;21.09;100.00
16194;BME280;8204;53.582;10.080;2023-06-22T03:21:59;101486.09;;;21.09;100.00
16194;BME280;8204;53.582;10.080;2023-06-22T03:24:25;101488.97;;;21.07;100.00
16194;BME280;8204;53.582;10.080;2023-06-22T03:26:50;101484.06;;;21.04;100.00
16194;BME280;8204;53.582;10.080;2023-06-22T03:29:16;101484.47;;;21.01;100.00
16194;BME280;8204;53.582;10.080;2023-06-22T03:31:42;101494.31;;;21.01;100.00
16194;BME280;8204;53.582;10.080;2023-06-22T03:34:07;101487.34;;;21.00;100.00
16194;BME280;8204;53.582;10.080;2023-06-22T03:36:33;101494.75;;;20.98;100.00
16194;BME280;8204;53.582;10.080;2023-06-22T03:38:58;101496.78;;;20.96;100.00
16194;BME280;8204;53.582;10.080;2023-06-22T03:41:23;101503.75;;;20.97;100.00
16194;BME280;8204;53.582;10.080;2023-06-22T03:43:49;101495.13;;;20.95;100.00
16194;BME280;8204;53.582;10.080;2023-06-22T03:46:14;101503.97;;;20.95;100.00
16194;BME280;8204;53.582;10.080;2023-06-22T03:48:40;101506.81;;;20.94;100.00
16194;BME280;8204;53.582;10.080;2023-06-22T03:51:06;101502.09;;;20.96;100.00
16194;BME280;8204;53.582;10.080;2023-06-22T03:53:31;101498.63;;;20.95;100.00
16194;BME280;8204;53.582;10.080;2023-06-22T03:55:57;101499.44;;;20.96;100.00
16194;BME280;8204;53.582;10.080;2023-06-22T03:58:22;101501.09;;;20.97;100.00
16194;BME280;8204;53.582;10.080;2023-06-22T04:00:49;101492.66;;;21.00;100.00
16194;BME280;8204;53.582;10.080;2023-06-22T04:03:15;101498.63;;;21.02;100.00
16194;BME280;8204;53.582;10.080;2023-06-22T04:05:42;101503.72;;;21.03;100.00
16194;BME280;8204;53.582;10.080;2023-06-22T04:08:07;101494.53;;;21.06;100.00
16194;BME280;8204;53.582;10.080;2023-06-22T04:10:33;101497.19;;;21.06;100.00
16194;BME280;8204;53.582;10.080;2023-06-22T04:12:59;101503.09;;;21.08;100.00
16194;BME280;8204;53.582;10.080;2023-06-22T04:15:25;101493.69;;;21.12;100.00
16194;BME280;8204;53.582;10.080;2023-06-22T04:17:51;101491.63;;;21.14;100.00
16194;BME280;8204;53.582;10.080;2023-06-22T04:20:16;101505.78;;;21.14;100.00
16194;BME280;8204;53.582;10.080;2023-06-22T04:22:41;101509.88;;;21.17;100.00
16194;BME280;8204;53.582;10.080;2023-06-22T04:25:07;101524.63;;;21.19;100.00
16194;BME280;8204;53.582;10.080;2023-06-22T04:27:33;101531.59;;;21.20;100.00
16194;BME280;8204;53.582;10.080;2023-06-22T04:30:03;101537.34;;;21.24;100.00
16194;BME280;8204;53.582;10.080;2023-06-22T04:32:30;101540.81;;;21.24;100.00
16194;BME280;8204;53.582;10.080;2023-06-22T04:34:55;101550.22;;;21.27;100.00
16194;BME280;8204;53.582;10.080;2023-06-22T04:37:21;101550.63;;;21.30;100.00
16194;BME280;8204;53.582;10.080;2023-06-22T04:39:49;101552.06;;;21.32;100.00
16194;BME280;8204;53.582;10.080;2023-06-22T04:42:14;101555.13;;;21.36;100.00
16194;BME280;8204;53.582;10.080;2023-06-22T04:44:40;101570.72;;;21.39;100.00
16194;BME280;8204;53.582;10.080;2023-06-22T04:47:07;101576.28;;;21.37;100.00
16194;BME280;8204;53.582;10.080;2023-06-22T04:49:34;101574.03;;;21.41;100.00
16194;BME280;8204;53.582;10.080;2023-06-22T04:52:06;101582.81;;;21.41;100.00
16194;BME280;8204;53.582;10.080;2023-06-22T04:54:33;101563.75;;;21.44;100.00
16194;BME280;8204;53.582;10.080;2023-06-22T04:57:03;101564.34;;;21.46;100.00
16194;BME280;8204;53.582;10.080;2023-06-22T04:59:30;101576.84;;;21.52;100.00
16194;BME280;8204;53.582;10.080;2023-06-22T05:02:02;101568.25;;;21.57;100.00
16194;BME280;8204;53.582;10.080;2023-06-22T05:04:29;101569.50;;;21.61;100.00
16194;BME280;8204;53.582;10.080;2023-06-22T05:06:59;101583.00;;;21.66;100.00
16194;BME280;8204;53.582;10.080;2023-06-22T05:09:28;101582.78;;;21.74;100.00
16194;BME280;8204;53.582;10.080;2023-06-22T05:11:53;101588.53;;;21.77;100.00
16194;BME280;8204;53.582;10.080;2023-06-22T05:14:19;101597.75;;;21.81;100.00
16194;BME280;8204;53.582;10.080;2023-06-22T05:16:45;101610.88;;;21.83;100.00
16194;BME280;8204;53.582;10.080;2023-06-22T05:19:11;101599.56;;;21.87;100.00
16194;BME280;8204;53.582;10.080;2023-06-22T05:21:38;101607.75;;;21.92;100.00
16194;BME280;8204;53.582;10.080;2023-06-22T05:24:04;101606.31;;;21.96;100.00
16194;BME280;8204;53.582;10.080;2023-06-22T05:26:31;101604.84;;;22.00;100.00
16194;BME280;8204;53.582;10.080;2023-06-22T05:28:58;101606.06;;;22.04;100.00
16194;BME280;8204;53.582;10.080;2023-06-22T05:31:24;101618.38;;;22.11;100.00
16194;BME280;8204;53.582;10.080;2023-06-22T05:33:52;101624.91;;;22.15;100.00
16194;BME280;8204;53.582;10.080;2023-06-22T05:36:17;101625.06;;;22.20;100.00
16194;BME280;8204;53.582;10.080;2023-06-22T05:38:45;101624.66;;;22.23;100.00
16194;BME280;8204;53.582;10.080;2023-06-22T05:41:11;101620.75;;;22.26;100.00
16194;BME280;8204;53.582;10.080;2023-06-22T05:43:37;101638.63;;;22.32;100.00
16194;BME280;8204;53.582;10.080;2023-06-22T05:46:04;101642.53;;;22.36;100.00
16194;BME280;8204;53.582;10.080;2023-06-22T05:48:30;101647.00;;;22.42;100.00
16194;BME280;8204;53.582;10.080;2023-06-22T05:50:56;101656.84;;;22.48;100.00
16194;BME280;8204;53.582;10.080;2023-06-22T05:53:21;101658.88;;;22.52;100.00
16194;BME280;8204;53.582;10.080;2023-06-22T05:55:47;101655.34;;;22.58;100.00
16194;BME280;8204;53.582;10.080;2023-06-22T05:58:12;101657.97;;;22.65;100.00
16194;BME280;8204;53.582;10.080;2023-06-22T06:00:41;101663.28;;;22.71;100.00
16194;BME280;8204;53.582;10.080;2023-06-22T06:03:08;101669.41;;;22.78;100.00
16194;BME280;8204;53.582;10.080;2023-06-22T06:05:35;101662.38;;;22.83;100.00
16194;BME280;8204;53.582;10.080;2023-06-22T06:08:02;101667.06;;;22.88;100.00
16194;BME280;8204;53.582;10.080;2023-06-22T06:10:30;101670.75;;;22.93;100.00
16194;BME280;8204;53.582;10.080;2023-06-22T06:12:56;101664.31;;;23.01;100.00
16194;BME280;8204;53.582;10.080;2023-06-22T06:15:21;101661.41;;;23.09;100.00
16194;BME280;8204;53.582;10.080;2023-06-22T06:17:48;101668.41;;;23.10;100.00
16194;BME280;8204;53.582;10.080;2023-06-22T06:20:15;101663.44;;;23.13;100.00
16194;BME280;8204;53.582;10.080;2023-06-22T06:22:40;101670.59;;;23.19;100.00
16194;BME280;8204;53.582;10.080;2023-06-22T06:25:08;101670.91;;;23.29;100.00
16194;BME280;8204;53.582;10.080;2023-06-22T06:27:33;101673.91;;;23.39;100.00
16194;BME280;8204;53.582;10.080;2023-06-22T06:29:59;101672.59;;;23.48;100.00
16194;BME280;8204;53.582;10.080;2023-06-22T06:32:24;101671.50;;;23.55;100.00
16194;BME280;8204;53.582;10.080;2023-06-22T06:34:49;101675.75;;;23.63;100.00
16194;BME280;8204;53.582;10.080;2023-06-22T06:37:16;101672.91;;;23.58;100.00
16194;BME280;8204;53.582;10.080;2023-06-22T06:39:43;101674.22;;;23.73;100.00
16194;BME280;8204;53.582;10.080;2023-06-22T06:42:09;101672.09;;;23.82;100.00
16194;BME280;8204;53.582;10.080;2023-06-22T06:44:36;101665.84;;;23.88;100.00
16194;BME280;8204;53.582;10.080;2023-06-22T06:47:03;101662.25;;;23.94;100.00
16194;BME280;8204;53.582;10.080;2023-06-22T06:49:29;101660.56;;;23.99;100.00
16194;BME280;8204;53.582;10.080;2023-06-22T06:51:54;101665.88;;;24.06;100.00
16194;BME280;8204;53.582;10.080;2023-06-22T06:54:21;101654.69;;;24.09;100.00
16194;BME280;8204;53.582;10.080;2023-06-22T06:56:46;101657.31;;;24.15;100.00
16194;BME280;8204;53.582;10.080;2023-06-22T06:59:14;101659.28;;;24.20;100.00
16194;BME280;8204;53.582;10.080;2023-06-22T07:01:39;101661.97;;;24.20;100.00
16194;BME280;8204;53.582;10.080;2023-06-22T07:04:05;101664.88;;;24.18;100.00
16194;BME280;8204;53.582;10.080;2023-06-22T07:06:30;101659.44;;;24.25;100.00
16194;BME280;8204;53.582;10.080;2023-06-22T07:08:57;101655.25;;;24.28;100.00
16194;BME280;8204;53.582;10.080;2023-06-22T07:11:22;101657.50;;;24.31;100.00
16194;BME280;8204;53.582;10.080;2023-06-22T07:13:48;101656.44;;;24.32;100.00
16194;BME280;8204;53.582;10.080;2023-06-22T07:16:13;101655.41;;;24.33;100.00
16194;BME280;8204;53.582;10.080;2023-06-22T07:18:40;101663.81;;;24.37;100.00
16194;BME280;8204;53.582;10.080;2023-06-22T07:21:05;101663.38;;;24.40;100.00
16194;BME280;8204;53.582;10.080;2023-06-22T07:23:32;101670.97;;;24.43;100.00
16194;BME280;8204;53.582;10.080;2023-06-22T07:25:57;101676.69;;;24.46;100.00
16194;BME280;8204;53.582;10.080;2023-06-22T07:28:23;101678.09;;;24.49;100.00
16194;BME280;8204;53.582;10.080;2023-06-22T07:30:48;101672.91;;;24.54;100.00
16194;BME280;8204;53.582;10.080;2023-06-22T07:33:13;101672.19;;;24.58;100.00
16194;BME280;8204;53.582;10.080;2023-06-22T07:35:39;101672.34;;;24.63;100.00
16194;BME280;8204;53.582;10.080;2023-06-22T07:38:04;101670.41;;;24.70;100.00
16194;BME280;8204;53.582;10.080;2023-06-22T07:40:30;101676.34;;;24.72;100.00
16194;BME280;8204;53.582;10.080;2023-06-22T07:42:55;101679.19;;;24.77;100.00
16194;BME280;8204;53.582;10.080;2023-06-22T07:45:21;101678.81;;;24.85;100.00
16194;BME280;8204;53.582;10.080;2023-06-22T07:47:51;101684.91;;;24.92;100.00
16194;BME280;8204;53.582;10.080;2023-06-22T07:50:16;101674.91;;;24.99;100.00
16194;BME280;8204;53.582;10.080;2023-06-22T07:52:42;101682.88;;;25.05;100.00
16194;BME280;8204;53.582;10.080;2023-06-22T07:55:08;101680.56;;;25.09;100.00
16194;BME280;8204;53.582;10.080;2023-06-22T07:57:33;101686.41;;;25.17;100.00
16194;BME280;8204;53.582;10.080;2023-06-22T08:00:00;101687.94;;;25.25;100.00
16194;BME280;8204;53.582;10.080;2023-06-22T08:02:26;101692.97;;;25.33;100.00
16194;BME280;8204;53.582;10.080;2023-06-22T08:04:52;101688.31;;;25.40;100.00
16194;BME280;8204;53.582;10.080;2023-06-22T08:07:17;101688.78;;;25.48;100.00
16194;BME280;8204;53.582;10.080;2023-06-22T08:09:47;101687.63;;;25.56;100.00
16194;BME280;8204;53.582;10.080;2023-06-22T08:12:14;101687.50;;;25.62;100.00
16194;BME280;8204;53.582;10.080;2023-06-22T08:14:42;101686.56;;;25.68;100.00
16194;BME280;8204;53.582;10.080;2023-06-22T08:17:08;101691.88;;;25.75;100.00
16194;BME280;8204;53.582;10.080;2023-06-22T08:19:34;101688.44;;;25.79;100.00
16194;BME280;8204;53.582;10.080;2023-06-22T08:22:00;101688.81;;;25.82;100.00
16194;BME280;8204;53.582;10.080;2023-06-22T08:24:26;101686.25;;;25.87;100.00
16194;BME280;8204;53.582;10.080;2023-06-22T08:26:55;101687.41;;;25.91;100.00
16194;BME280;8204;53.582;10.080;2023-06-22T08:29:20;101680.75;;;25.94;100.00
16194;BME280;8204;53.582;10.080;2023-06-22T08:31:46;101682.72;;;25.98;100.00
16194;BME280;8204;53.582;10.080;2023-06-22T08:34:11;101677.44;;;26.03;100.00
16194;BME280;8204;53.582;10.080;2023-06-22T08:36:37;101671.63;;;26.06;100.00
16194;BME280;8204;53.582;10.080;2023-06-22T08:39:07;101672.41;;;26.07;100.00
16194;BME280;8204;53.582;10.080;2023-06-22T08:41:33;101665.06;;;26.02;100.00
16194;BME280;8204;53.582;10.080;2023-06-22T08:43:58;101673.00;;;26.09;100.00
16194;BME280;8204;53.582;10.080;2023-06-22T08:46:25;101681.66;;;26.11;100.00
16194;BME280;8204;53.582;10.080;2023-06-22T08:48:56;101684.91;;;26.13;100.00
16194;BME280;8204;53.582;10.080;2023-06-22T08:51:23;101676.38;;;26.16;100.00
16194;BME280;8204;53.582;10.080;2023-06-22T08:53:49;101675.69;;;26.20;100.00
16194;BME280;8204;53.582;10.080;2023-06-22T08:56:14;101672.41;;;26.18;100.00
16194;BME280;8204;53.582;10.080;2023-06-22T08:58:39;101669.34;;;26.26;100.00
16194;BME280;8204;53.582;10.080;2023-06-22T09:01:05;101664.78;;;26.27;100.00
16194;BME280;8204;53.582;10.080;2023-06-22T09:03:31;101663.47;;;26.29;100.00
16194;BME280;8204;53.582;10.080;2023-06-22T09:05:58;101670.50;;;26.30;100.00
16194;BME280;8204;53.582;10.080;2023-06-22T09:08:24;101663.47;;;26.29;100.00
16194;BME280;8204;53.582;10.080;2023-06-22T09:10:50;101662.44;;;26.30;100.00
16194;BME280;8204;53.582;10.080;2023-06-22T09:13:16;101657.63;;;26.32;100.00
16194;BME280;8204;53.582;10.080;2023-06-22T09:15:42;101646.41;;;26.35;100.00
16194;BME280;8204;53.582;10.080;2023-06-22T09:18:10;101657.16;;;26.35;100.00
16194;BME280;8204;53.582;10.080;2023-06-22T09:20:37;101654.63;;;26.40;100.00
16194;BME280;8204;53.582;10.080;2023-06-22T09:23:02;101648.75;;;26.43;100.00
16194;BME280;8204;53.582;10.080;2023-06-22T09:25:27;101645.09;;;26.49;100.00
16194;BME280;8204;53.582;10.080;2023-06-22T09:27:53;101650.56;;;26.54;100.00
16194;BME280;8204;53.582;10.080;2023-06-22T09:30:19;101649.03;;;26.58;100.00
16194;BME280;8204;53.582;10.080;2023-06-22T09:32:44;101652.41;;;26.65;100.00
16194;BME280;8204;53.582;10.080;2023-06-22T09:35:10;101640.97;;;26.58;100.00
16194;BME280;8204;53.582;10.080;2023-06-22T09:37:37;101641.63;;;26.65;100.00
16194;BME280;8204;53.582;10.080;2023-06-22T09:40:03;101634.47;;;26.70;100.00
16194;BME280;8204;53.582;10.080;2023-06-22T09:42:36;101642.84;;;26.74;100.00
16194;BME280;8204;53.582;10.080;2023-06-22T09:45:02;101640.03;;;26.80;100.00
16194;BME280;8204;53.582;10.080;2023-06-22T09:47:29;101636.28;;;26.81;100.00
16194;BME280;8204;53.582;10.080;2023-06-22T09:49:54;101632.53;;;26.82;100.00
16194;BME280;8204;53.582;10.080;2023-06-22T09:52:21;101636.94;;;26.88;100.00
16194;BME280;8204;53.582;10.080;2023-06-22T09:54:47;101630.81;;;26.93;100.00
16194;BME280;8204;53.582;10.080;2023-06-22T09:57:13;101636.88;;;27.00;100.00
16194;BME280;8204;53.582;10.080;2023-06-22T09:59:38;101639.69;;;27.05;100.00
16194;BME280;8204;53.582;10.080;2023-06-22T10:02:07;101635.69;;;27.07;100.00
16194;BME280;8204;53.582;10.080;2023-06-22T10:04:33;101628.00;;;27.16;100.00
16194;BME280;8204;53.582;10.080;2023-06-22T10:06:59;101629.72;;;27.22;100.00
16194;BME280;8204;53.582;10.080;2023-06-22T10:09:25;101623.94;;;27.30;100.00
16194;BME280;8204;53.582;10.080;2023-06-22T10:11:51;101621.81;;;27.32;100.00
16194;BME280;8204;53.582;10.080;2023-06-22T10:14:16;101615.44;;;27.37;100.00
16194;BME280;8204;53.582;10.080;2023-06-22T10:16:43;101628.06;;;27.37;100.00
16194;BME280;8204;53.582;10.080;2023-06-22T10:19:09;101618.25;;;27.47;100.00
16194;BME280;8204;53.582;10.080;2023-06-22T10:21:38;101611.63;;;27.55;100.00
16194;BME280;8204;53.582;10.080;2023-06-22T10:24:03;101623.34;;;27.60;100.00
16194;BME280;8204;53.582;10.080;2023-06-22T10:26:32;101619.63;;;27.66;100.00
16194;BME280;8204;53.582;10.080;2023-06-22T10:28:57;101610.66;;;27.77;100.00
16194;BME280;8204;53.582;10.080;2023-06-22T10:31:23;101615.09;;;27.88;100.00
16194;BME280;8204;53.582;10.080;2023-06-22T10:33:49;101614.66;;;27.96;100.00
16194;BME280;8204;53.582;10.080;2023-06-22T10:36:15;101606.94;;;28.05;100.00
16194;BME280;8204;53.582;10.080;2023-06-22T10:38:41;101611.06;;;28.12;100.00
16194;BME280;8204;53.582;10.080;2023-06-22T10:41:06;101603.16;;;28.22;100.00
16194;BME280;8204;53.582;10.080;2023-06-22T10:43:32;101599.97;;;28.30;100.00
16194;BME280;8204;53.582;10.080;2023-06-22T10:45:58;101596.81;;;28.38;100.00
16194;BME280;8204;53.582;10.080;2023-06-22T10:48:23;101587.19;;;28.42;100.00
16194;BME280;8204;53.582;10.080;2023-06-22T10:50:49;101582.94;;;28.51;100.00
16194;BME280;8204;53.582;10.080;2023-06-22T10:53:14;101585.22;;;28.64;100.00
16194;BME280;8204;53.582;10.080;2023-06-22T10:55:39;101590.72;;;28.74;100.00
16194;BME280;8204;53.582;10.080;2023-06-22T10:58:05;101589.47;;;28.86;100.00
16194;BME280;8204;53.582;10.080;2023-06-22T11:00:30;101592.00;;;28.97;100.00
16194;BME280;8204;53.582;10.080;2023-06-22T11:02:55;101593.41;;;29.05;100.00
16194;BME280;8204;53.582;10.080;2023-06-22T11:05:21;101588.59;;;29.12;100.00
16194;BME280;8204;53.582;10.080;2023-06-22T11:07:47;101587.84;;;29.16;100.00
16194;BME280;8204;53.582;10.080;2023-06-22T11:10:14;101583.03;;;29.28;100.00
16194;BME280;8204;53.582;10.080;2023-06-22T11:12:40;101580.16;;;29.35;100.00
16194;BME280;8204;53.582;10.080;2023-06-22T11:15:05;101586.94;;;29.42;100.00
16194;BME280;8204;53.582;10.080;2023-06-22T11:17:32;101572.16;;;29.50;100.00
16194;BME280;8204;53.582;10.080;2023-06-22T11:19:57;101573.56;;;29.62;100.00
16194;BME280;8204;53.582;10.080;2023-06-22T11:22:24;101572.53;;;29.73;100.00
16194;BME280;8204;53.582;10.080;2023-06-22T11:24:49;101572.56;;;29.78;100.00
16194;BME280;8204;53.582;10.080;2023-06-22T11:27:15;101564.97;;;29.80;100.00
16194;BME280;8204;53.582;10.080;2023-06-22T11:29:41;101565.81;;;29.80;100.00
16194;BME280;8204;53.582;10.080;2023-06-22T11:32:06;101560.69;;;29.84;100.00
16194;BME280;8204;53.582;10.080;2023-06-22T11:34:32;101569.41;;;29.91;100.00
16194;BME280;8204;53.582;10.080;2023-06-22T11:36:58;101571.31;;;30.00;100.00
16194;BME280;8204;53.582;10.080;2023-06-22T11:39:23;101568.38;;;30.12;100.00
16194;BME280;8204;53.582;10.080;2023-06-22T11:41:48;101566.75;;;30.21;100.00
16194;BME280;8204;53.582;10.080;2023-06-22T11:44:14;101568.16;;;30.28;100.00
16194;BME280;8204;53.582;10.080;2023-06-22T11:46:39;101568.44;;;30.36;100.00
16194;BME280;8204;53.582;10.080;2023-06-22T11:49:04;101567.06;;;30.44;100.00
16194;BME280;8204;53.582;10.080;2023-06-22T11:51:30;101561.44;;;30.50;100.00
16194;BME280;8204;53.582;10.080;2023-06-22T11:53:57;101556.59;;;30.57;100.00
16194;BME280;8204;53.582;10.080;2023-06-22T11:56:23;101556.88;;;30.61;100.00
16194;BME280;8204;53.582;10.080;2023-06-22T11:58:48;101561.72;;;30.64;100.00
16194;BME280;8204;53.582;10.080;2023-06-22T12:01:14;101553.31;;;30.65;100.00
16194;BME280;8204;53.582;10.080;2023-06-22T12:03:41;101561.41;;;30.40;100.00
16194;BME280;8204;53.582;10.080;2023-06-22T12:06:08;101557.13;;;30.54;100.00
16194;BME280;8204;53.582;10.080;2023-06-22T12:08:35;101550.63;;;30.60;100.00
16194;BME280;8204;53.582;10.080;2023-06-22T12:11:02;101547.63;;;30.62;100.00
16194;BME280;8204;53.582;10.080;2023-06-22T12:13:28;101536.56;;;30.68;100.00
16194;BME280;8204;53.582;10.080;2023-06-22T12:15:53;101534.66;;;30.74;100.00
16194;BME280;8204;53.582;10.080;2023-06-22T12:18:18;101524.09;;;30.87;100.00
16194;BME280;8204;53.582;10.080;2023-06-22T12:20:46;101524.63;;;31.04;100.00
16194;BME280;8204;53.582;10.080;2023-06-22T12:23:12;101520.00;;;31.14;100.00
16194;BME280;8204;53.582;10.080;2023-06-22T12:25:37;101520.25;;;31.28;100.00
16194;BME280;8204;53.582;10.080;2023-06-22T12:28:03;101526.44;;;31.38;100.00
16194;BME280;8204;53.582;10.080;2023-06-22T12:30:32;101518.81;;;31.50;100.00
16194;BME280;8204;53.582;10.080;2023-06-22T12:32:58;101520.13;;;31.63;100.00
16194;BME280;8204;53.582;10.080;2023-06-22T12:35:23;101512.25;;;31.66;100.00
16194;BME280;8204;53.582;10.080;2023-06-22T12:37:49;101507.63;;;31.72;100.00
16194;BME280;8204;53.582;10.080;2023-06-22T12:40:15;101508.09;;;31.84;100.00
16194;BME280;8204;53.582;10.080;2023-06-22T12:42:40;101508.09;;;31.84;100.00
16194;BME280;8204;53.582;10.080;2023-06-22T12:45:07;101514.34;;;31.84;100.00
16194;BME280;8204;53.582;10.080;2023-06-22T12:47:32;101506.19;;;31.89;100.00
16194;BME280;8204;53.582;10.080;2023-06-22T12:49:58;101505.34;;;31.93;100.00
16194;BME280;8204;53.582;10.080;2023-06-22T12:52:23;101501.50;;;31.99;100.00
16194;BME280;8204;53.582;10.080;2023-06-22T12:54:49;101497.69;;;32.05;100.00
16194;BME280;8204;53.582;10.080;2023-06-22T12:57:14;101497.66;;;32.10;100.00
16194;BME280;8204;53.582;10.080;2023-06-22T12:59:39;101495.50;;;32.12;100.00
16194;BME280;8204;53.582;10.080;2023-06-22T13:02:05;101488.09;;;32.18;100.00
16194;BME280;8204;53.582;10.080;2023-06-22T13:04:31;101491.44;;;32.10;100.00
16194;BME280;8204;53.582;10.080;2023-06-22T13:06:57;101484.31;;;32.19;100.00
16194;BME280;8204;53.582;10.080;2023-06-22T13:09:27;101494.56;;;32.27;100.00
16194;BME280;8204;53.582;10.080;2023-06-22T13:11:53;101490.06;;;32.46;100.00
16194;BME280;8204;53.582;10.080;2023-06-22T13:14:19;101496.31;;;32.46;100.00
16194;BME280;8204;53.582;10.080;2023-06-22T13:16:44;101494.81;;;32.63;100.00
16194;BME280;8204;53.582;10.080;2023-06-22T13:19:10;101482.72;;;32.79;100.00
16194;BME280;8204;53.582;10.080;2023-06-22T13:21:35;101492.25;;;32.77;100.00
16194;BME280;8204;53.582;10.080;2023-06-22T13:24:00;101491.28;;;32.91;100.00
16194;BME280;8204;53.582;10.080;2023-06-22T13:26:26;101490.13;;;32.97;100.00
16194;BME280;8204;53.582;10.080;2023-06-22T13:28:53;101489.81;;;33.04;100.00
16194;BME280;8204;53.582;10.080;2023-06-22T13:31:19;101484.38;;;33.04;100.00
16194;BME280;8204;53.582;10.080;2023-06-22T13:33:45;101485.38;;;33.13;100.00
16194;BME280;8204;53.582;10.080;2023-06-22T13:36:13;101481.97;;;33.02;100.00